sensor_id;sensor_type;location;lat;lon;timestamp;temperature;humidity
18894;DHT22;9579;49.488;8.226;2023-03-04T00:02:31;6.30;93.40
18894;DHT22;9579;49.488;8.226;2023-03-04T00:05:18;5.40;93.00
18894;DHT22;9579;49.488;8.226;2023-03-04T00:08:07;5.50;93.20
18894;DHT22;9579;49.488;8.226;2023-03-04T00:10:57;5.30;93.20
18894;DHT22;9579;49.488;8.226;2023-03-04T00:13:44;5.70;93.50
18894;DHT22;9579;49.488;8.226;2023-03-04T00:16:32;5.30;93.40
18894;DHT22;9579;49.488;8.226;2023-03-04T00:19:20;5.20;93.30
18894;DHT22;9579;49.488;8.226;2023-03-04T00:22:09;5.20;93.50
18894;DHT22;9579;49.488;8.226;2023-03-04T00:24:58;5.40;93.40
18894;DHT22;9579;49.488;8.226;2023-03-04T00:27:45;5.80;93.70
18894;DHT22;9579;49.488;8.226;2023-03-04T00:30:33;5.10;93.40
18894;DHT22;9579;49.488;8.226;2023-03-04T00:33:20;5.00;93.30
18894;DHT22;9579;49.488;8.226;2023-03-04T00:36:08;5.10;93.30
18894;DHT22;9579;49.488;8.226;2023-03-04T00:38:56;4.80;93.50
18894;DHT22;9579;49.488;8.226;2023-03-04T00:41:44;4.70;93.10
18894;DHT22;9579;49.488;8.226;2023-03-04T00:44:33;4.80;92.90
18894;DHT22;9579;49.488;8.226;2023-03-04T00:47:21;5.30;93.50
18894;DHT22;9579;49.488;8.226;2023-03-04T00:50:10;4.90;93.40
18894;DHT22;9579;49.488;8.226;2023-03-04T00:52:58;4.90;93.70
18894;DHT22;9579;49.488;8.226;2023-03-04T00:55:55;5.50;93.70
18894;DHT22;9579;49.488;8.226;2023-03-04T00:58:44;4.80;93.50
18894;DHT22;9579;49.488;8.226;2023-03-04T01:01:31;5.60;93.90
18894;DHT22;9579;49.488;8.226;2023-03-04T01:04:19;4.70;93.60
18894;DHT22;9579;49.488;8.226;2023-03-04T01:07:07;4.80;93.70
18894;DHT22;9579;49.488;8.226;2023-03-04T01:09:54;5.90;94.50
18894;DHT22;9579;49.488;8.226;2023-03-04T01:12:44;4.80;93.80
18894;DHT22;9579;49.488;8.226;2023-03-04T01:15:33;5.60;94.30
18894;DHT22;9579;49.488;8.226;2023-03-04T01:18:21;4.50;93.50
18894;DHT22;9579;49.488;8.226;2023-03-04T01:21:08;5.30;93.90
18894;DHT22;9579;49.488;8.226;2023-03-04T01:23:56;5.70;94.00
18894;DHT22;9579;49.488;8.226;2023-03-04T01:26:44;4.80;93.80
18894;DHT22;9579;49.488;8.226;2023-03-04T01:29:31;5.10;93.90
18894;DHT22;9579;49.488;8.226;2023-03-04T01:32:20;5.40;93.70
18894;DHT22;9579;49.488;8.226;2023-03-04T01:35:08;5.50;93.90
18894;DHT22;9579;49.488;8.226;2023-03-04T01:37:56;5.40;93.80
18894;DHT22;9579;49.488;8.226;2023-03-04T01:40:43;5.30;93.60
18894;DHT22;9579;49.488;8.226;2023-03-04T01:43:31;6.30;93.90
18894;DHT22;9579;49.488;8.226;2023-03-04T01:46:20;5.20;93.40
18894;DHT22;9579;49.488;8.226;2023-03-04T01:49:11;5.30;93.10
18894;DHT22;9579;49.488;8.226;2023-03-04T01:52:01;5.00;93.40
18894;DHT22;9579;49.488;8.226;2023-03-04T01:54:49;4.70;93.10
18894;DHT22;9579;49.488;8.226;2023-03-04T01:57:38;5.40;93.50
18894;DHT22;9579;49.488;8.226;2023-03-04T02:00:28;5.90;93.70
18894;DHT22;9579;49.488;8.226;2023-03-04T02:03:17;5.20;93.80
18894;DHT22;9579;49.488;8.226;2023-03-04T02:06:07;4.90;93.70
18894;DHT22;9579;49.488;8.226;2023-03-04T02:08:55;5.20;94.00
18894;DHT22;9579;49.488;8.226;2023-03-04T02:11:44;4.80;93.90
18894;DHT22;9579;49.488;8.226;2023-03-04T02:14:32;5.50;94.40
18894;DHT22;9579;49.488;8.226;2023-03-04T02:17:23;6.30;94.30
18894;DHT22;9579;49.488;8.226;2023-03-04T02:20:24;5.30;93.80
18894;DHT22;9579;49.488;8.226;2023-03-04T02:23:20;5.00;93.60
18894;DHT22;9579;49.488;8.226;2023-03-04T02:26:16;4.90;93.50
18894;DHT22;9579;49.488;8.226;2023-03-04T02:29:04;5.60;94.00
18894;DHT22;9579;49.488;8.226;2023-03-04T02:31:52;5.60;94.00
18894;DHT22;9579;49.488;8.226;2023-03-04T02:34:45;6.00;94.20
18894;DHT22;9579;49.488;8.226;2023-03-04T02:37:40;4.80;93.60
18894;DHT22;9579;49.488;8.226;2023-03-04T02:40:30;4.70;93.60
18894;DHT22;9579;49.488;8.226;2023-03-04T02:43:20;4.80;93.70
18894;DHT22;9579;49.488;8.226;2023-03-04T02:46:10;4.60;93.70
18894;DHT22;9579;49.488;8.226;2023-03-04T02:48:58;5.10;93.90
18894;DHT22;9579;49.488;8.226;2023-03-04T02:51:49;5.30;93.90
18894;DHT22;9579;49.488;8.226;2023-03-04T02:54:37;4.90;93.70
18894;DHT22;9579;49.488;8.226;2023-03-04T02:57:21;5.10;93.90
18894;DHT22;9579;49.488;8.226;2023-03-04T03:00:11;4.90;93.80
18894;DHT22;9579;49.488;8.226;2023-03-04T03:03:02;4.60;93.60
18894;DHT22;9579;49.488;8.226;2023-03-04T03:05:51;5.10;93.90
18894;DHT22;9579;49.488;8.226;2023-03-04T03:08:47;5.30;94.40
18894;DHT22;9579;49.488;8.226;2023-03-04T03:11:35;5.30;94.20
18894;DHT22;9579;49.488;8.226;2023-03-04T03:14:22;4.90;94.00
18894;DHT22;9579;49.488;8.226;2023-03-04T03:17:15;4.60;94.00
18894;DHT22;9579;49.488;8.226;2023-03-04T03:20:05;4.50;93.90
18894;DHT22;9579;49.488;8.226;2023-03-04T03:22:53;4.00;93.70
18894;DHT22;9579;49.488;8.226;2023-03-04T03:25:41;4.50;93.80
18894;DHT22;9579;49.488;8.226;2023-03-04T03:28:28;4.50;93.70
18894;DHT22;9579;49.488;8.226;2023-03-04T03:31:15;5.30;94.30
18894;DHT22;9579;49.488;8.226;2023-03-04T03:34:05;4.80;94.10
18894;DHT22;9579;49.488;8.226;2023-03-04T03:36:52;3.60;93.70
18894;DHT22;9579;49.488;8.226;2023-03-04T03:39:39;5.90;94.40
18894;DHT22;9579;49.488;8.226;2023-03-04T03:42:27;6.10;94.20
18894;DHT22;9579;49.488;8.226;2023-03-04T03:45:14;4.50;93.60
18894;DHT22;9579;49.488;8.226;2023-03-04T03:48:01;4.80;94.10
18894;DHT22;9579;49.488;8.226;2023-03-04T03:50:50;4.90;94.50
18894;DHT22;9579;49.488;8.226;2023-03-04T03:53:37;4.60;94.30
18894;DHT22;9579;49.488;8.226;2023-03-04T03:56:24;4.40;94.30
18894;DHT22;9579;49.488;8.226;2023-03-04T03:59:12;4.40;94.40
18894;DHT22;9579;49.488;8.226;2023-03-04T04:01:59;4.50;94.40
18894;DHT22;9579;49.488;8.226;2023-03-04T04:04:46;4.60;94.50
18894;DHT22;9579;49.488;8.226;2023-03-04T04:07:35;4.60;94.50
18894;DHT22;9579;49.488;8.226;2023-03-04T04:10:22;4.10;94.30
18894;DHT22;9579;49.488;8.226;2023-03-04T04:13:10;4.90;94.70
18894;DHT22;9579;49.488;8.226;2023-03-04T04:15:58;4.50;94.60
18894;DHT22;9579;49.488;8.226;2023-03-04T04:18:45;5.00;94.70
18894;DHT22;9579;49.488;8.226;2023-03-04T04:21:32;4.90;94.60
18894;DHT22;9579;49.488;8.226;2023-03-04T04:24:22;5.10;94.40
18894;DHT22;9579;49.488;8.226;2023-03-04T04:27:10;4.40;94.00
18894;DHT22;9579;49.488;8.226;2023-03-04T04:29:57;4.40;94.20
18894;DHT22;9579;49.488;8.226;2023-03-04T04:32:44;4.70;94.40
18894;DHT22;9579;49.488;8.226;2023-03-04T04:35:32;4.10;94.30
18894;DHT22;9579;49.488;8.226;2023-03-04T04:38:19;4.40;94.40
18894;DHT22;9579;49.488;8.226;2023-03-04T04:41:17;5.10;94.40
18894;DHT22;9579;49.488;8.226;2023-03-04T04:44:06;3.90;93.70
18894;DHT22;9579;49.488;8.226;2023-03-04T04:46:53;4.30;93.50
18894;DHT22;9579;49.488;8.226;2023-03-04T04:49:40;5.20;93.50
18894;DHT22;9579;49.488;8.226;2023-03-04T04:52:28;4.10;93.00
18894;DHT22;9579;49.488;8.226;2023-03-04T04:55:16;4.30;93.50
18894;DHT22;9579;49.488;8.226;2023-03-04T04:58:06;3.90;92.90
18894;DHT22;9579;49.488;8.226;2023-03-04T05:00:55;4.40;93.40
18894;DHT22;9579;49.488;8.226;2023-03-04T05:03:44;4.40;93.00
18894;DHT22;9579;49.488;8.226;2023-03-04T05:06:35;5.40;93.30
18894;DHT22;9579;49.488;8.226;2023-03-04T05:09:23;3.90;92.70
18894;DHT22;9579;49.488;8.226;2023-03-04T05:12:11;3.50;92.90
18894;DHT22;9579;49.488;8.226;2023-03-04T05:15:00;3.70;93.10
18894;DHT22;9579;49.488;8.226;2023-03-04T05:17:47;4.30;93.80
18894;DHT22;9579;49.488;8.226;2023-03-04T05:20:34;3.90;93.50
18894;DHT22;9579;49.488;8.226;2023-03-04T05:23:22;4.00;93.60
18894;DHT22;9579;49.488;8.226;2023-03-04T05:26:13;3.60;93.60
18894;DHT22;9579;49.488;8.226;2023-03-04T05:29:00;3.60;93.80
18894;DHT22;9579;49.488;8.226;2023-03-04T05:31:49;3.50;93.90
18894;DHT22;9579;49.488;8.226;2023-03-04T05:34:36;3.50;94.00
18894;DHT22;9579;49.488;8.226;2023-03-04T05:37:23;3.30;94.20
18894;DHT22;9579;49.488;8.226;2023-03-04T05:40:11;3.30;94.60
18894;DHT22;9579;49.488;8.226;2023-03-04T05:42:59;3.40;94.60
18894;DHT22;9579;49.488;8.226;2023-03-04T05:45:48;3.60;94.50
18894;DHT22;9579;49.488;8.226;2023-03-04T05:48:36;3.70;94.60
18894;DHT22;9579;49.488;8.226;2023-03-04T05:51:23;3.70;94.50
18894;DHT22;9579;49.488;8.226;2023-03-04T05:54:10;3.80;94.30
18894;DHT22;9579;49.488;8.226;2023-03-04T05:56:57;3.80;94.40
18894;DHT22;9579;49.488;8.226;2023-03-04T05:59:45;3.80;94.20
18894;DHT22;9579;49.488;8.226;2023-03-04T06:02:32;3.80;94.20
18894;DHT22;9579;49.488;8.226;2023-03-04T06:05:21;3.80;94.30
18894;DHT22;9579;49.488;8.226;2023-03-04T06:08:08;3.80;94.40
18894;DHT22;9579;49.488;8.226;2023-03-04T06:10:56;3.90;94.50
18894;DHT22;9579;49.488;8.226;2023-03-04T06:13:43;3.80;94.40
18894;DHT22;9579;49.488;8.226;2023-03-04T06:16:31;3.80;94.80
18894;DHT22;9579;49.488;8.226;2023-03-04T06:19:18;3.90;94.60
18894;DHT22;9579;49.488;8.226;2023-03-04T06:22:06;4.00;94.50
18894;DHT22;9579;49.488;8.226;2023-03-04T06:24:54;4.10;94.30
18894;DHT22;9579;49.488;8.226;2023-03-04T06:27:41;4.20;94.30
18894;DHT22;9579;49.488;8.226;2023-03-04T06:30:28;4.10;94.90
18894;DHT22;9579;49.488;8.226;2023-03-04T06:33:15;4.20;95.20
18894;DHT22;9579;49.488;8.226;2023-03-04T06:36:02;4.30;95.60
18894;DHT22;9579;49.488;8.226;2023-03-04T06:38:51;4.50;95.70
18894;DHT22;9579;49.488;8.226;2023-03-04T06:41:38;4.60;95.50
18894;DHT22;9579;49.488;8.226;2023-03-04T06:44:25;4.70;95.60
18894;DHT22;9579;49.488;8.226;2023-03-04T06:47:12;4.80;95.50
18894;DHT22;9579;49.488;8.226;2023-03-04T06:49:59;5.00;95.60
18894;DHT22;9579;49.488;8.226;2023-03-04T06:52:47;5.00;95.20
18894;DHT22;9579;49.488;8.226;2023-03-04T06:55:38;5.20;95.10
18894;DHT22;9579;49.488;8.226;2023-03-04T06:58:25;5.30;94.90
18894;DHT22;9579;49.488;8.226;2023-03-04T07:01:14;5.20;94.80
18894;DHT22;9579;49.488;8.226;2023-03-04T07:04:01;5.30;94.90
18894;DHT22;9579;49.488;8.226;2023-03-04T07:06:49;5.30;94.90
18894;DHT22;9579;49.488;8.226;2023-03-04T07:09:36;5.50;94.70
18894;DHT22;9579;49.488;8.226;2023-03-04T07:12:24;5.50;94.60
18894;DHT22;9579;49.488;8.226;2023-03-04T07:15:12;5.50;94.50
18894;DHT22;9579;49.488;8.226;2023-03-04T07:17:59;5.70;94.70
18894;DHT22;9579;49.488;8.226;2023-03-04T07:20:46;5.50;94.50
18894;DHT22;9579;49.488;8.226;2023-03-04T07:23:36;5.50;94.80
18894;DHT22;9579;49.488;8.226;2023-03-04T07:26:23;5.60;94.80
18894;DHT22;9579;49.488;8.226;2023-03-04T07:29:12;5.60;94.70
18894;DHT22;9579;49.488;8.226;2023-03-04T07:31:59;5.70;94.70
18894;DHT22;9579;49.488;8.226;2023-03-04T07:34:47;5.70;94.50
18894;DHT22;9579;49.488;8.226;2023-03-04T07:37:34;5.80;94.50
18894;DHT22;9579;49.488;8.226;2023-03-04T07:40:21;5.90;94.40
18894;DHT22;9579;49.488;8.226;2023-03-04T07:43:12;6.00;94.60
18894;DHT22;9579;49.488;8.226;2023-03-04T07:46:04;6.10;94.80
18894;DHT22;9579;49.488;8.226;2023-03-04T07:48:51;6.10;94.20
18894;DHT22;9579;49.488;8.226;2023-03-04T07:51:38;6.20;94.30
18894;DHT22;9579;49.488;8.226;2023-03-04T07:54:26;6.30;94.00
18894;DHT22;9579;49.488;8.226;2023-03-04T07:57:13;6.30;93.90
18894;DHT22;9579;49.488;8.226;2023-03-04T08:00:00;6.30;93.80
18894;DHT22;9579;49.488;8.226;2023-03-04T08:02:48;6.30;93.70
18894;DHT22;9579;49.488;8.226;2023-03-04T08:05:38;6.30;93.80
18894;DHT22;9579;49.488;8.226;2023-03-04T08:08:25;6.30;93.70
18894;DHT22;9579;49.488;8.226;2023-03-04T08:11:14;6.30;94.00
18894;DHT22;9579;49.488;8.226;2023-03-04T08:14:01;6.40;94.10
18894;DHT22;9579;49.488;8.226;2023-03-04T08:16:48;6.50;93.80
18894;DHT22;9579;49.488;8.226;2023-03-04T08:19:37;6.60;93.60
18894;DHT22;9579;49.488;8.226;2023-03-04T08:22:24;6.60;93.60
18894;DHT22;9579;49.488;8.226;2023-03-04T08:25:11;6.70;93.50
18894;DHT22;9579;49.488;8.226;2023-03-04T08:27:58;6.80;93.30
18894;DHT22;9579;49.488;8.226;2023-03-04T08:30:51;6.90;93.20
18894;DHT22;9579;49.488;8.226;2023-03-04T08:33:39;6.90;93.30
18894;DHT22;9579;49.488;8.226;2023-03-04T08:36:27;6.90;93.20
18894;DHT22;9579;49.488;8.226;2023-03-04T08:39:16;7.00;93.30
18894;DHT22;9579;49.488;8.226;2023-03-04T08:42:03;7.20;93.00
18894;DHT22;9579;49.488;8.226;2023-03-04T08:44:50;7.20;92.80
18894;DHT22;9579;49.488;8.226;2023-03-04T08:47:38;7.20;92.80
18894;DHT22;9579;49.488;8.226;2023-03-04T08:50:25;7.20;92.90
18894;DHT22;9579;49.488;8.226;2023-03-04T08:53:16;7.40;92.80
18894;DHT22;9579;49.488;8.226;2023-03-04T08:56:04;7.40;92.70
18894;DHT22;9579;49.488;8.226;2023-03-04T08:58:51;7.40;92.30
18894;DHT22;9579;49.488;8.226;2023-03-04T09:01:38;7.50;92.40
18894;DHT22;9579;49.488;8.226;2023-03-04T09:04:25;7.50;92.50
18894;DHT22;9579;49.488;8.226;2023-03-04T09:07:13;7.50;92.30
18894;DHT22;9579;49.488;8.226;2023-03-04T09:10:01;7.60;92.60
18894;DHT22;9579;49.488;8.226;2023-03-04T09:12:48;7.50;92.20
18894;DHT22;9579;49.488;8.226;2023-03-04T09:15:36;7.60;92.40
18894;DHT22;9579;49.488;8.226;2023-03-04T09:18:24;7.70;92.20
18894;DHT22;9579;49.488;8.226;2023-03-04T09:21:11;7.70;92.00
18894;DHT22;9579;49.488;8.226;2023-03-04T09:23:58;7.70;92.00
18894;DHT22;9579;49.488;8.226;2023-03-04T09:26:49;7.80;91.90
18894;DHT22;9579;49.488;8.226;2023-03-04T09:29:36;7.90;91.80
18894;DHT22;9579;49.488;8.226;2023-03-04T09:32:23;7.90;91.70
18894;DHT22;9579;49.488;8.226;2023-03-04T09:35:10;8.00;91.90
18894;DHT22;9579;49.488;8.226;2023-03-04T09:37:57;8.00;91.70
18894;DHT22;9579;49.488;8.226;2023-03-04T09:40:46;8.00;91.70
18894;DHT22;9579;49.488;8.226;2023-03-04T09:43:37;8.10;92.10
18894;DHT22;9579;49.488;8.226;2023-03-04T09:46:31;8.20;91.70
18894;DHT22;9579;49.488;8.226;2023-03-04T09:49:20;8.10;91.30
18894;DHT22;9579;49.488;8.226;2023-03-04T09:52:13;8.10;91.50
18894;DHT22;9579;49.488;8.226;2023-03-04T09:55:17;8.20;91.10
18894;DHT22;9579;49.488;8.226;2023-03-04T09:58:13;8.10;91.10
18894;DHT22;9579;49.488;8.226;2023-03-04T10:01:09;8.10;91.20
18894;DHT22;9579;49.488;8.226;2023-03-04T10:03:58;8.10;91.40
18894;DHT22;9579;49.488;8.226;2023-03-04T10:06:48;8.10;91.30
18894;DHT22;9579;49.488;8.226;2023-03-04T10:09:45;8.00;91.40
18894;DHT22;9579;49.488;8.226;2023-03-04T10:12:33;8.00;91.00
18894;DHT22;9579;49.488;8.226;2023-03-04T10:15:31;8.10;90.80
18894;DHT22;9579;49.488;8.226;2023-03-04T10:18:24;8.20;91.00
18894;DHT22;9579;49.488;8.226;2023-03-04T10:21:18;8.20;91.00
18894;DHT22;9579;49.488;8.226;2023-03-04T10:24:11;8.10;90.70
18894;DHT22;9579;49.488;8.226;2023-03-04T10:27:03;8.10;91.30
18894;DHT22;9579;49.488;8.226;2023-03-04T10:29:51;8.10;91.20
18894;DHT22;9579;49.488;8.226;2023-03-04T10:32:44;8.10;90.70
18894;DHT22;9579;49.488;8.226;2023-03-04T10:35:35;8.20;90.60
18894;DHT22;9579;49.488;8.226;2023-03-04T10:38:24;8.20;90.90
18894;DHT22;9579;49.488;8.226;2023-03-04T10:41:12;8.30;90.60
18894;DHT22;9579;49.488;8.226;2023-03-04T10:44:02;8.20;90.50
18894;DHT22;9579;49.488;8.226;2023-03-04T10:46:51;8.30;90.60
18894;DHT22;9579;49.488;8.226;2023-03-04T10:49:49;8.40;90.40
18894;DHT22;9579;49.488;8.226;2023-03-04T10:52:40;8.40;90.20
18894;DHT22;9579;49.488;8.226;2023-03-04T10:55:42;8.40;90.40
18894;DHT22;9579;49.488;8.226;2023-03-04T10:58:29;8.40;90.30
18894;DHT22;9579;49.488;8.226;2023-03-04T11:01:16;8.40;90.30
18894;DHT22;9579;49.488;8.226;2023-03-04T11:04:16;8.40;90.20
18894;DHT22;9579;49.488;8.226;2023-03-04T11:07:07;8.40;90.20
18894;DHT22;9579;49.488;8.226;2023-03-04T11:10:06;8.30;90.30
18894;DHT22;9579;49.488;8.226;2023-03-04T11:12:59;8.30;90.30
18894;DHT22;9579;49.488;8.226;2023-03-04T11:15:51;8.40;90.50
18894;DHT22;9579;49.488;8.226;2023-03-04T11:18:41;8.40;90.70
18894;DHT22;9579;49.488;8.226;2023-03-04T11:21:33;8.50;90.80
18894;DHT22;9579;49.488;8.226;2023-03-04T11:24:25;8.50;90.60
18894;DHT22;9579;49.488;8.226;2023-03-04T14:08:51;8.90;90.60
18894;DHT22;9579;49.488;8.226;2023-03-04T14:11:40;8.90;90.70
18894;DHT22;9579;49.488;8.226;2023-03-04T14:14:29;8.90;90.80
18894;DHT22;9579;49.488;8.226;2023-03-04T14:17:19;9.00;90.80
18894;DHT22;9579;49.488;8.226;2023-03-04T14:20:26;9.10;90.40
18894;DHT22;9579;49.488;8.226;2023-03-04T14:23:25;9.10;90.70
18894;DHT22;9579;49.488;8.226;2023-03-04T14:26:16;9.20;90.60
18894;DHT22;9579;49.488;8.226;2023-03-04T14:29:22;9.20;90.50
18894;DHT22;9579;49.488;8.226;2023-03-04T14:32:11;9.30;90.10
18894;DHT22;9579;49.488;8.226;2023-03-04T15:39:39;9.00;90.70
18894;DHT22;9579;49.488;8.226;2023-03-04T15:42:26;8.90;90.40
18894;DHT22;9579;49.488;8.226;2023-03-04T15:45:20;8.90;90.20
18894;DHT22;9579;49.488;8.226;2023-03-04T15:48:10;9.00;90.40
18894;DHT22;9579;49.488;8.226;2023-03-04T15:50:59;8.90;90.10
18894;DHT22;9579;49.488;8.226;2023-03-04T15:53:49;8.80;90.50
18894;DHT22;9579;49.488;8.226;2023-03-04T15:56:38;8.80;90.50
18894;DHT22;9579;49.488;8.226;2023-03-04T15:59:25;8.70;90.80
18894;DHT22;9579;49.488;8.226;2023-03-04T16:02:19;8.60;91.30
18894;DHT22;9579;49.488;8.226;2023-03-04T16:05:09;8.60;90.90
18894;DHT22;9579;49.488;8.226;2023-03-04T16:07:57;8.70;91.10
18894;DHT22;9579;49.488;8.226;2023-03-04T16:10:47;8.60;91.00
18894;DHT22;9579;49.488;8.226;2023-03-04T16:13:35;8.70;90.90
18894;DHT22;9579;49.488;8.226;2023-03-04T16:16:22;8.70;91.00
18894;DHT22;9579;49.488;8.226;2023-03-04T16:19:09;8.70;90.90
18894;DHT22;9579;49.488;8.226;2023-03-04T16:21:56;8.80;90.70
18894;DHT22;9579;49.488;8.226;2023-03-04T16:24:43;8.90;90.60
18894;DHT22;9579;49.488;8.226;2023-03-04T16:27:31;8.60;91.00
18894;DHT22;9579;49.488;8.226;2023-03-04T16:30:22;8.70;90.90
18894;DHT22;9579;49.488;8.226;2023-03-04T16:33:09;8.60;91.00
18894;DHT22;9579;49.488;8.226;2023-03-04T16:35:57;8.60;90.90
18894;DHT22;9579;49.488;8.226;2023-03-04T16:38:44;8.50;91.00
18894;DHT22;9579;49.488;8.226;2023-03-04T16:41:31;8.50;91.20
18894;DHT22;9579;49.488;8.226;2023-03-04T16:44:20;8.50;91.20
18894;DHT22;9579;49.488;8.226;2023-03-04T16:47:09;8.40;91.20
18894;DHT22;9579;49.488;8.226;2023-03-04T16:49:56;8.30;91.70
18894;DHT22;9579;49.488;8.226;2023-03-04T16:52:45;8.30;91.80
18894;DHT22;9579;49.488;8.226;2023-03-04T16:55:33;8.20;92.20
18894;DHT22;9579;49.488;8.226;2023-03-04T16:58:22;8.20;92.30
18894;DHT22;9579;49.488;8.226;2023-03-04T17:01:19;8.10;92.30
18894;DHT22;9579;49.488;8.226;2023-03-04T17:04:25;8.20;92.20
18894;DHT22;9579;49.488;8.226;2023-03-04T17:07:12;8.10;92.60
18894;DHT22;9579;49.488;8.226;2023-03-04T17:09:59;8.00;92.40
18894;DHT22;9579;49.488;8.226;2023-03-04T17:12:46;7.90;92.20
18894;DHT22;9579;49.488;8.226;2023-03-04T17:15:34;7.80;92.30
18894;DHT22;9579;49.488;8.226;2023-03-04T17:18:21;7.70;92.40
18894;DHT22;9579;49.488;8.226;2023-03-04T17:21:12;7.70;92.60
18894;DHT22;9579;49.488;8.226;2023-03-04T17:23:59;7.60;92.60
18894;DHT22;9579;49.488;8.226;2023-03-04T17:26:47;7.70;92.70
18894;DHT22;9579;49.488;8.226;2023-03-04T17:29:35;7.60;92.70
18894;DHT22;9579;49.488;8.226;2023-03-04T17:32:22;7.50;93.00
18894;DHT22;9579;49.488;8.226;2023-03-04T17:35:11;7.50;93.00
18894;DHT22;9579;49.488;8.226;2023-03-04T17:37:59;7.50;93.10
18894;DHT22;9579;49.488;8.226;2023-03-04T17:40:46;7.60;93.00
18894;DHT22;9579;49.488;8.226;2023-03-04T17:43:36;7.60;93.10
18894;DHT22;9579;49.488;8.226;2023-03-04T17:46:25;7.60;93.10
18894;DHT22;9579;49.488;8.226;2023-03-04T17:49:14;7.50;93.10
18894;DHT22;9579;49.488;8.226;2023-03-04T17:52:02;7.40;93.30
18894;DHT22;9579;49.488;8.226;2023-03-04T17:54:50;7.40;93.40
18894;DHT22;9579;49.488;8.226;2023-03-04T17:57:37;7.40;93.40
18894;DHT22;9579;49.488;8.226;2023-03-04T18:00:25;7.40;93.40
18894;DHT22;9579;49.488;8.226;2023-03-04T18:03:12;7.30;93.60
18894;DHT22;9579;49.488;8.226;2023-03-04T18:05:59;7.30;93.80
18894;DHT22;9579;49.488;8.226;2023-03-04T18:08:47;7.30;93.80
18894;DHT22;9579;49.488;8.226;2023-03-04T18:11:37;7.30;93.80
18894;DHT22;9579;49.488;8.226;2023-03-04T18:14:24;7.40;93.80
18894;DHT22;9579;49.488;8.226;2023-03-04T18:17:12;7.50;93.80
18894;DHT22;9579;49.488;8.226;2023-03-04T18:19:59;7.50;93.70
18894;DHT22;9579;49.488;8.226;2023-03-04T18:22:46;7.60;93.60
18894;DHT22;9579;49.488;8.226;2023-03-04T18:25:33;7.60;93.60
18894;DHT22;9579;49.488;8.226;2023-03-04T18:28:22;7.60;93.50
18894;DHT22;9579;49.488;8.226;2023-03-04T18:33:44;7.50;93.70
18894;DHT22;9579;49.488;8.226;2023-03-04T18:36:33;7.50;93.60
18894;DHT22;9579;49.488;8.226;2023-03-04T18:39:20;7.60;93.50
18894;DHT22;9579;49.488;8.226;2023-03-04T18:42:07;7.60;93.60
18894;DHT22;9579;49.488;8.226;2023-03-04T18:44:55;7.60;93.60
18894;DHT22;9579;49.488;8.226;2023-03-04T18:47:45;7.50;93.70
18894;DHT22;9579;49.488;8.226;2023-03-04T18:50:32;7.60;93.80
18894;DHT22;9579;49.488;8.226;2023-03-04T18:53:19;7.50;94.00
18894;DHT22;9579;49.488;8.226;2023-03-04T18:56:10;7.50;93.90
18894;DHT22;9579;49.488;8.226;2023-03-04T18:58:58;7.60;93.80
18894;DHT22;9579;49.488;8.226;2023-03-04T19:01:47;7.60;93.70
18894;DHT22;9579;49.488;8.226;2023-03-04T19:04:35;7.50;93.70
18894;DHT22;9579;49.488;8.226;2023-03-04T19:07:22;7.50;93.70
18894;DHT22;9579;49.488;8.226;2023-03-04T19:10:11;7.50;93.90
18894;DHT22;9579;49.488;8.226;2023-03-04T19:19:25;8.50;94.10
18894;DHT22;9579;49.488;8.226;2023-03-04T19:22:35;8.70;94.30
18894;DHT22;9579;49.488;8.226;2023-03-04T19:27:51;7.50;93.80
18894;DHT22;9579;49.488;8.226;2023-03-04T19:41:15;7.40;93.90
18894;DHT22;9579;49.488;8.226;2023-03-04T20:10:10;7.50;93.50
